Time;durP1;ratioP1;P1;durP2;ratioP2;P2;SDS_P1;SDS_P2;PMS_P1;PMS_P2;Temp;Humidity;BMP_temperature;BMP_pressure;BME280_temperature;BME280_humidity;BME280_pressure;Samples;Min_cycle;Max_cycle;Signal;HPM_P1;HPM_P2
2021/12/18 00:00:10;;;;;;;0.73;0.40;;;8.80;93.70;;;;;;4950128;28;20134;-79
2021/12/18 00:03:05;;;;;;;0.82;0.50;;;8.80;93.70;;;;;;4951505;29;20047;-81
2021/12/18 00:09:33;;;;;;;1.00;0.40;;;8.80;93.70;;;;;;4995824;28;20105;-79
2021/12/18 00:12:00;;;;;;;1.45;0.68;;;8.80;93.70;;;;;;4972279;28;20392;-79
2021/12/18 00:14:26;;;;;;;0.52;0.50;;;8.80;93.70;;;;;;5037665;28;20061;-78
2021/12/18 00:16:52;;;;;;;0.75;0.45;;;8.70;93.70;;;;;;5046969;28;20095;-78
2021/12/18 00:19:24;;;;;;;0.90;0.60;;;8.90;93.70;;;;;;5045658;28;20071;-78
2021/12/18 00:21:50;;;;;;;1.48;0.70;;;8.80;93.70;;;;;;5045257;28;20049;-78
2021/12/18 00:24:15;;;;;;;0.57;0.50;;;8.80;93.70;;;;;;5045564;28;20024;-78
2021/12/18 00:26:41;;;;;;;1.00;0.55;;;8.80;93.70;;;;;;5045989;28;20038;-79
2021/12/18 00:29:07;;;;;;;1.27;0.60;;;8.80;93.70;;;;;;5030522;28;20076;-79
2021/12/18 00:31:33;;;;;;;1.13;0.55;;;8.80;93.70;;;;;;5046376;28;20117;-79
2021/12/18 00:33:58;;;;;;;0.77;0.45;;;8.80;93.70;;;;;;5033233;28;20561;-79
2021/12/18 00:36:24;;;;;;;1.13;0.60;;;8.90;93.80;;;;;;5052895;28;20049;-79
2021/12/18 00:38:50;;;;;;;1.00;0.60;;;8.70;93.70;;;;;;5053359;28;20090;-79
2021/12/18 00:41:35;;;;;;;1.48;0.75;;;8.80;93.80;;;;;;5038191;28;20046;-79
2021/12/18 00:44:02;;;;;;;1.45;0.70;;;8.80;93.80;;;;;;5120761;28;20051;-78
2021/12/18 00:46:35;;;;;;;1.10;0.60;;;8.80;93.80;;;;;;5119031;28;20023;-78
2021/12/18 00:49:03;;;;;;;0.80;0.60;;;8.70;93.70;;;;;;5128652;28;20076;-78
2021/12/18 00:51:29;;;;;;;0.75;0.60;;;8.80;93.80;;;;;;5128281;28;20046;-78
2021/12/18 00:53:55;;;;;;;0.50;0.40;;;8.80;93.80;;;;;;5106676;28;20370;-78
2021/12/18 00:56:22;;;;;;;0.40;0.40;;;8.80;93.80;;;;;;5128076;28;20115;-78
2021/12/18 00:58:49;;;;;;;1.33;0.57;;;8.80;93.80;;;;;;5093981;28;20058;-78
2021/12/18 01:01:16;;;;;;;0.38;0.32;;;8.80;93.80;;;;;;5091620;28;20035;-78
2021/12/18 01:03:43;;;;;;;0.40;0.40;;;8.80;93.80;;;;;;5107304;28;20047;-78
2021/12/18 01:06:09;;;;;;;0.40;0.40;;;8.80;93.80;;;;;;5129696;28;20023;-78
2021/12/18 01:08:35;;;;;;;0.73;0.40;;;8.80;93.70;;;;;;5126201;28;20047;-78
2021/12/18 01:11:24;;;;;;;1.08;0.57;;;8.80;93.70;;;;;;5106701;28;20027;-78
2021/12/18 01:14:20;;;;;;;1.25;0.60;;;8.80;93.70;;;;;;5110331;28;20038;-78
2021/12/18 01:16:48;;;;;;;0.75;0.52;;;8.80;93.70;;;;;;5111969;28;20036;-79
2021/12/18 01:24:33;;;;;;;1.55;0.70;;;8.80;93.80;;;;;;5093652;28;20149;-78
2021/12/18 01:26:59;;;;;;;0.73;0.45;;;8.80;93.70;;;;;;5091517;28;20044;-79
2021/12/18 01:29:25;;;;;;;0.52;0.47;;;8.80;93.80;;;;;;5090924;28;20071;-79
2021/12/18 01:31:50;;;;;;;0.60;0.50;;;8.80;93.80;;;;;;5072989;28;20071;-79
2021/12/18 01:34:16;;;;;;;0.95;0.60;;;8.70;93.80;;;;;;5106972;28;20046;-79
2021/12/18 01:36:43;;;;;;;1.00;0.50;;;8.70;93.80;;;;;;5124826;28;20046;-79
2021/12/18 01:39:09;;;;;;;1.42;0.70;;;8.70;93.80;;;;;;5126200;28;20527;-79
2021/12/18 01:41:52;;;;;;;0.88;0.50;;;8.70;93.80;;;;;;5071587;28;20040;-79
2021/12/18 01:44:52;;;;;;;1.08;0.60;;;8.70;93.80;;;;;;5127329;28;20040;-79
2021/12/18 01:51:14;;;;;;;1.30;0.70;;;8.70;93.80;;;;;;5122379;28;20028;-80
2021/12/18 01:52:32;;;;;;;0.82;0.50;;;8.70;93.80;;;;;;5137460;28;20026;-79
2021/12/18 01:54:58;;;;;;;0.70;0.65;;;8.70;93.80;;;;;;5118294;28;20019;-80
2021/12/18 01:57:24;;;;;;;0.63;0.40;;;8.70;93.80;;;;;;5117968;28;20421;-80
2021/12/18 01:59:51;;;;;;;0.93;0.60;;;8.70;93.80;;;;;;5135885;28;20047;-79
2021/12/18 02:02:18;;;;;;;0.68;0.50;;;8.70;93.70;;;;;;5136747;28;20397;-79
2021/12/18 02:04:44;;;;;;;1.13;0.52;;;8.70;93.80;;;;;;5084031;28;20043;-80
2021/12/18 02:07:10;;;;;;;0.30;0.20;;;8.60;93.70;;;;;;5100244;28;20056;-80
2021/12/18 02:12:16;;;;;;;0.57;0.35;;;8.70;93.80;;;;;;5134472;28;20054;-79
2021/12/18 02:20:21;;;;;;;0.70;0.32;;;8.80;93.70;;;;;;5117235;28;20044;-79
2021/12/18 02:22:47;;;;;;;0.63;0.50;;;8.80;93.80;;;;;;5133330;28;20047;-79
2021/12/18 02:25:13;;;;;;;0.35;0.35;;;8.80;93.70;;;;;;5096290;28;20039;-79
2021/12/18 02:27:39;;;;;;;0.73;0.32;;;8.70;93.70;;;;;;5131730;28;20053;-79
2021/12/18 02:30:06;;;;;;;0.20;0.20;;;8.80;93.80;;;;;;5113294;28;20381;-80
2021/12/18 02:32:31;;;;;;;0.40;0.30;;;8.80;93.80;;;;;;5097137;28;20062;-80
2021/12/18 02:35:03;;;;;;;0.40;0.30;;;8.80;93.80;;;;;;5096256;28;20670;-80
2021/12/18 02:37:29;;;;;;;0.68;0.40;;;8.70;93.80;;;;;;5133170;28;20056;-80
2021/12/18 02:42:42;;;;;;;0.47;0.30;;;8.70;93.80;;;;;;5131055;28;20051;-80
2021/12/18 02:45:09;;;;;;;0.38;0.30;;;8.70;93.80;;;;;;5097288;28;20035;-80
2021/12/18 02:47:35;;;;;;;1.05;0.50;;;8.70;93.80;;;;;;5130259;28;20102;-80
2021/12/18 02:50:00;;;;;;;0.95;0.60;;;8.70;93.80;;;;;;5112952;28;20580;-79
2021/12/18 02:52:29;;;;;;;0.88;0.60;;;8.70;93.80;;;;;;5133549;28;20048;-80
2021/12/18 02:54:55;;;;;;;1.02;0.50;;;8.70;93.80;;;;;;5113261;28;20043;-80
2021/12/18 02:57:21;;;;;;;0.93;0.55;;;8.70;93.80;;;;;;5113358;28;20117;-79
2021/12/18 02:59:51;;;;;;;1.45;0.68;;;8.70;93.80;;;;;;5132142;28;20047;-81
2021/12/18 03:02:19;;;;;;;1.10;0.60;;;8.70;93.80;;;;;;5132472;28;20065;-81
2021/12/18 03:04:50;;;;;;;1.40;0.63;;;8.70;93.80;;;;;;5133117;28;20038;-80
2021/12/18 03:07:19;;;;;;;0.93;0.60;;;8.70;93.80;;;;;;5099290;28;20054;-81
2021/12/18 03:18:58;;;;;;;1.05;0.43;;;8.70;93.90;;;;;;5113435;28;20023;-80
2021/12/18 03:23:27;;;;;;;1.23;0.40;;;8.70;93.80;;;;;;5128042;28;20032;-80
2021/12/18 03:25:56;;;;;;;0.68;0.40;;;8.70;93.80;;;;;;5093715;28;20042;-80
2021/12/18 03:28:22;;;;;;;1.30;0.50;;;8.70;93.80;;;;;;5106156;28;20393;-80
2021/12/18 03:30:48;;;;;;;0.52;0.40;;;8.70;93.80;;;;;;5105379;28;20121;-80
2021/12/18 03:33:14;;;;;;;0.77;0.30;;;8.70;93.80;;;;;;5105575;28;20489;-80
2021/12/18 03:35:40;;;;;;;1.48;0.60;;;8.60;93.80;;;;;;5107239;28;20039;-80
2021/12/18 03:38:09;;;;;;;1.70;0.70;;;8.70;93.90;;;;;;5087413;28;20060;-79
2021/12/18 03:40:35;;;;;;;1.70;0.60;;;8.70;93.80;;;;;;5104410;28;20040;-80
2021/12/18 03:43:01;;;;;;;1.92;0.68;;;8.70;93.80;;;;;;5105671;28;20428;-79
2021/12/18 03:45:27;;;;;;;1.23;0.60;;;8.70;93.90;;;;;;5125328;28;20040;-79
2021/12/18 03:47:53;;;;;;;1.00;0.57;;;8.70;93.90;;;;;;5106155;28;20382;-80
2021/12/18 03:50:19;;;;;;;1.27;0.70;;;8.70;93.90;;;;;;5105966;28;20059;-80
2021/12/18 03:52:45;;;;;;;1.35;0.63;;;8.70;93.90;;;;;;5086840;28;20024;-80
2021/12/18 03:55:13;;;;;;;1.35;0.63;;;8.60;93.80;;;;;;5093324;28;20074;-80
2021/12/18 03:57:38;;;;;;;1.13;0.60;;;8.60;93.90;;;;;;5089361;28;20074;-80
2021/12/18 04:00:07;;;;;;;0.50;0.40;;;8.70;93.90;;;;;;5107192;28;20069;-80
2021/12/18 04:02:33;;;;;;;1.17;0.65;;;8.80;93.90;;;;;;5122418;28;20397;-80
2021/12/18 04:04:58;;;;;;;1.10;0.70;;;8.60;93.90;;;;;;5103852;28;20046;-80
2021/12/18 04:07:24;;;;;;;1.35;0.77;;;8.60;93.90;;;;;;5107434;28;20055;-80
2021/12/18 04:09:50;;;;;;;1.33;0.60;;;8.50;93.90;;;;;;5093044;28;20059;-80
2021/12/18 04:12:16;;;;;;;1.75;0.77;;;8.50;93.90;;;;;;5128016;28;20027;-79
2021/12/18 04:14:43;;;;;;;1.10;0.65;;;8.50;93.90;;;;;;5108923;28;20043;-80
2021/12/18 04:17:09;;;;;;;1.40;0.60;;;8.50;93.90;;;;;;5128406;28;20043;-80
2021/12/18 04:19:35;;;;;;;1.45;0.75;;;8.50;93.90;;;;;;5089392;28;20108;-80
2021/12/18 04:22:00;;;;;;;1.10;0.60;;;8.50;93.90;;;;;;5109208;28;20057;-79
2021/12/18 04:24:26;;;;;;;0.85;0.50;;;8.50;93.90;;;;;;5129984;28;20071;-79
2021/12/18 04:26:52;;;;;;;0.90;0.52;;;8.40;93.90;;;;;;5109392;28;20359;-79
2021/12/18 04:29:18;;;;;;;1.38;0.45;;;8.40;93.90;;;;;;5092275;28;20126;-79
2021/12/18 04:31:43;;;;;;;0.75;0.45;;;8.40;94.00;;;;;;5109973;28;20063;-80
2021/12/18 04:34:09;;;;;;;1.00;0.55;;;8.40;94.00;;;;;;5093452;28;20043;-79
2021/12/18 04:36:35;;;;;;;0.80;0.40;;;8.40;94.00;;;;;;5129883;28;20039;-80
2021/12/18 04:39:03;;;;;;;1.00;0.40;;;8.40;94.00;;;;;;5132325;28;20069;-79
2021/12/18 04:44:06;;;;;;;0.63;0.30;;;8.40;94.00;;;;;;5132742;28;20031;-79
2021/12/18 04:46:32;;;;;;;1.30;0.70;;;8.40;94.00;;;;;;5129894;28;20106;-80
2021/12/18 04:48:57;;;;;;;0.88;0.65;;;8.40;94.00;;;;;;5129715;28;20480;-79
2021/12/18 04:51:23;;;;;;;0.35;0.30;;;8.20;93.90;;;;;;5113242;28;20512;-79
2021/12/18 04:53:49;;;;;;;1.42;0.60;;;8.30;94.00;;;;;;5130959;28;20036;-79
2021/12/18 04:56:15;;;;;;;0.40;0.40;;;8.30;94.00;;;;;;5131633;28;20103;-80
2021/12/18 04:58:40;;;;;;;0.38;0.28;;;8.30;94.00;;;;;;5095073;28;20047;-80
2021/12/18 05:01:06;;;;;;;1.17;0.60;;;8.40;94.00;;;;;;5112219;28;20139;-79
2021/12/18 05:03:32;;;;;;;0.88;0.40;;;8.50;94.00;;;;;;5096178;28;20050;-79
2021/12/18 05:06:00;;;;;;;0.90;0.30;;;8.30;94.00;;;;;;5114548;28;20048;-79
2021/12/18 05:08:26;;;;;;;0.38;0.22;;;8.40;94.00;;;;;;5134123;28;20036;-79
2021/12/18 05:10:52;;;;;;;0.80;0.30;;;8.40;94.00;;;;;;5100906;28;20108;-80
2021/12/18 05:13:17;;;;;;;0.47;0.40;;;8.40;94.00;;;;;;5115712;28;20047;-79
2021/12/18 05:15:43;;;;;;;0.88;0.43;;;8.40;94.00;;;;;;5112538;28;20057;-79
2021/12/18 05:18:09;;;;;;;0.75;0.60;;;8.40;94.00;;;;;;5111301;28;20050;-79
2021/12/18 05:20:35;;;;;;;0.75;0.40;;;8.30;94.00;;;;;;5110204;28;20073;-79
2021/12/18 05:23:00;;;;;;;0.70;0.40;;;8.30;94.00;;;;;;5131528;28;20036;-80
2021/12/18 05:25:27;;;;;;;0.82;0.40;;;8.30;94.00;;;;;;5109896;28;20492;-79
2021/12/18 05:27:52;;;;;;;0.47;0.20;;;8.30;94.00;;;;;;5129158;28;20043;-79
2021/12/18 05:30:18;;;;;;;0.77;0.30;;;8.30;94.00;;;;;;5128367;28;20095;-79
2021/12/18 05:32:44;;;;;;;0.32;0.20;;;8.30;94.10;;;;;;5108689;28;20040;-79
2021/12/18 05:35:10;;;;;;;0.55;0.30;;;8.30;94.10;;;;;;5107316;28;20134;-79
2021/12/18 05:40:21;;;;;;;0.57;0.40;;;8.30;94.10;;;;;;5110005;28;20101;-80
2021/12/18 05:42:49;;;;;;;1.13;0.50;;;8.30;94.10;;;;;;5105120;28;20048;-79
2021/12/18 05:45:15;;;;;;;0.50;0.30;;;8.40;94.10;;;;;;5106132;28;20040;-79
2021/12/18 05:47:43;;;;;;;1.35;0.52;;;8.30;94.10;;;;;;5104982;28;20093;-79
2021/12/18 05:50:10;;;;;;;0.65;0.32;;;8.30;94.00;;;;;;5123207;28;20038;-79
2021/12/18 05:52:36;;;;;;;1.38;0.65;;;8.20;94.00;;;;;;5127668;28;20042;-79
2021/12/18 05:55:03;;;;;;;1.52;0.68;;;8.30;94.10;;;;;;5106528;28;20138;-79
2021/12/18 05:57:28;;;;;;;0.65;0.43;;;8.30;94.10;;;;;;5104316;28;20552;-79
2021/12/18 05:59:54;;;;;;;0.85;0.40;;;8.20;94.00;;;;;;5108058;28;20118;-80
2021/12/18 06:02:20;;;;;;;0.70;0.40;;;8.20;94.10;;;;;;5121480;28;20063;-79
2021/12/18 06:04:45;;;;;;;0.70;0.30;;;8.20;94.10;;;;;;5122581;28;20072;-79
2021/12/18 06:07:27;;;;;;;0.85;0.40;;;8.20;94.00;;;;;;5103161;28;20092;-79
2021/12/18 06:09:53;;;;;;;0.60;0.30;;;8.20;94.10;;;;;;5121338;28;20051;-79
2021/12/18 06:12:19;;;;;;;0.20;0.20;;;8.20;94.10;;;;;;5103524;28;20034;-79
2021/12/18 06:14:45;;;;;;;1.45;0.60;;;8.20;94.10;;;;;;5102096;28;20509;-79
2021/12/18 06:17:11;;;;;;;0.50;0.30;;;8.20;94.10;;;;;;5091594;28;20393;-80
2021/12/18 06:19:37;;;;;;;0.82;0.40;;;8.20;94.10;;;;;;5095907;28;20039;-80
2021/12/18 06:22:03;;;;;;;1.23;0.50;;;8.20;94.10;;;;;;5093470;28;20043;-80
2021/12/18 06:24:29;;;;;;;0.70;0.50;;;8.20;94.10;;;;;;5075513;28;20130;-79
2021/12/18 06:26:56;;;;;;;1.25;0.40;;;8.20;94.10;;;;;;5125918;28;20393;-79
2021/12/18 06:29:22;;;;;;;0.68;0.35;;;8.20;94.10;;;;;;5089147;28;20046;-79
2021/12/18 06:31:49;;;;;;;0.50;0.38;;;8.20;94.10;;;;;;5089979;28;20054;-79
2021/12/18 06:34:16;;;;;;;0.20;0.20;;;8.10;94.10;;;;;;5105366;28;20035;-79
2021/12/18 06:36:42;;;;;;;0.80;0.30;;;8.10;94.10;;;;;;5105795;28;20036;-79
2021/12/18 06:39:08;;;;;;;0.50;0.30;;;8.10;94.10;;;;;;5107154;28;20039;-79
2021/12/18 06:41:34;;;;;;;0.52;0.32;;;8.10;94.10;;;;;;5087500;28;20065;-79
2021/12/18 06:44:00;;;;;;;0.68;0.35;;;8.10;94.10;;;;;;5103416;28;20396;-80
2021/12/18 06:46:28;;;;;;;0.20;0.17;;;8.10;94.10;;;;;;5121482;28;20040;-78
2021/12/18 06:48:54;;;;;;;0.95;0.40;;;8.10;94.10;;;;;;5086826;28;20055;-79
2021/12/18 06:51:20;;;;;;;0.52;0.20;;;8.00;94.20;;;;;;5105719;28;20046;-79
2021/12/18 06:53:48;;;;;;;1.33;0.55;;;8.10;94.20;;;;;;5107461;28;20498;-79
2021/12/18 06:56:14;;;;;;;0.50;0.28;;;8.00;94.20;;;;;;5106234;28;20054;-79
2021/12/18 06:58:43;;;;;;;0.52;0.20;;;8.00;94.20;;;;;;5090617;28;20435;-79
2021/12/18 07:01:09;;;;;;;0.50;0.30;;;8.00;94.20;;;;;;5075459;28;20052;-79
2021/12/18 07:03:35;;;;;;;0.43;0.20;;;7.90;94.10;;;;;;5107885;28;20075;-78
2021/12/18 07:06:01;;;;;;;0.43;0.20;;;7.90;94.20;;;;;;5125831;28;20040;-79
2021/12/18 07:08:27;;;;;;;0.17;0.17;;;8.00;94.20;;;;;;5072689;28;20039;-78
2021/12/18 07:10:53;;;;;;;0.43;0.15;;;7.90;94.10;;;;;;5126769;28;20492;-79
2021/12/18 07:13:19;;;;;;;0.20;0.20;;;7.90;94.20;;;;;;5090856;28;20039;-79
2021/12/18 07:15:48;;;;;;;0.20;0.20;;;7.90;94.20;;;;;;5106554;28;20062;-79
2021/12/18 07:18:13;;;;;;;0.28;0.20;;;7.90;94.20;;;;;;5087826;28;20050;-79
2021/12/18 07:20:39;;;;;;;0.25;0.17;;;7.80;94.20;;;;;;5083590;28;20385;-80
2021/12/18 07:23:05;;;;;;;0.17;0.17;;;7.80;94.20;;;;;;5083803;28;20036;-80
2021/12/18 07:25:31;;;;;;;0.10;0.10;;;7.80;94.20;;;;;;5119003;28;20035;-80
2021/12/18 07:27:57;;;;;;;0.13;0.13;;;7.80;94.30;;;;;;5068294;28;20044;-80
2021/12/18 07:30:23;;;;;;;0.43;0.20;;;7.70;94.20;;;;;;5082728;28;20032;-80
2021/12/18 07:32:49;;;;;;;0.13;0.13;;;7.70;94.20;;;;;;5101251;28;20067;-80
2021/12/18 07:35:16;;;;;;;0.10;0.10;;;7.70;94.20;;;;;;5103641;28;20039;-79
2021/12/18 07:37:42;;;;;;;0.13;0.13;;;7.60;94.20;;;;;;5121147;28;20055;-79
2021/12/18 07:40:09;;;;;;;0.40;0.20;;;7.60;94.30;;;;;;5104884;28;20035;-80
2021/12/18 07:42:35;;;;;;;0.28;0.20;;;7.60;94.30;;;;;;5086527;28;20301;-79
2021/12/18 07:45:01;;;;;;;0.20;0.20;;;7.70;94.30;;;;;;5106749;28;20044;-80
2021/12/18 07:47:27;;;;;;;0.10;0.10;;;7.60;94.30;;;;;;5095756;28;20052;-80
2021/12/18 07:49:53;;;;;;;0.10;0.10;;;7.50;94.20;;;;;;5121288;28;20038;-79
2021/12/18 07:52:21;;;;;;;0.20;0.20;;;7.50;94.30;;;;;;5098925;28;20074;-80
2021/12/18 07:54:47;;;;;;;0.20;0.20;;;7.50;94.30;;;;;;5119531;28;20126;-79
2021/12/18 07:57:13;;;;;;;0.15;0.10;;;7.50;94.30;;;;;;5111238;28;20051;-80
2021/12/18 07:59:39;;;;;;;0.03;0.03;;;7.50;94.30;;;;;;5078980;28;20039;-79
2021/12/18 08:02:05;;;;;;;0.20;0.13;;;7.40;94.30;;;;;;5076128;28;20035;-79
2021/12/18 08:04:32;;;;;;;0.10;0.10;;;7.50;94.30;;;;;;5106763;28;20520;-79
2021/12/18 08:06:58;;;;;;;0.05;0.00;;;7.40;94.20;;;;;;5104698;28;20087;-79
2021/12/18 08:09:23;;;;;;;0.10;0.10;;;7.50;94.30;;;;;;5099168;28;20036;-79
2021/12/18 08:11:49;;;;;;;0.25;0.10;;;7.40;94.30;;;;;;5078203;28;20031;-79
2021/12/18 08:14:15;;;;;;;0.20;0.10;;;7.40;94.30;;;;;;5079225;28;20039;-79
2021/12/18 08:16:40;;;;;;;0.20;0.10;;;7.40;94.30;;;;;;5113358;28;20089;-79
2021/12/18 08:19:06;;;;;;;0.43;0.10;;;7.50;94.30;;;;;;5115596;28;20118;-80
2021/12/18 08:21:32;;;;;;;0.22;0.20;;;7.40;94.30;;;;;;5095286;28;20050;-79
2021/12/18 08:23:58;;;;;;;0.10;0.10;;;7.40;94.30;;;;;;5114244;28;20046;-80
2021/12/18 08:26:23;;;;;;;0.32;0.17;;;7.40;94.30;;;;;;5079043;28;20122;-80
2021/12/18 08:28:50;;;;;;;0.28;0.20;;;7.40;94.30;;;;;;5113398;28;20047;-79
2021/12/18 08:31:15;;;;;;;0.10;0.10;;;7.40;94.30;;;;;;5077902;28;20036;-79
2021/12/18 08:33:44;;;;;;;0.10;0.10;;;7.40;94.20;;;;;;5077313;28;20485;-80
2021/12/18 08:36:10;;;;;;;0.10;0.10;;;7.40;94.20;;;;;;5095798;28;20173;-81
2021/12/18 08:38:35;;;;;;;0.17;0.10;;;7.30;94.20;;;;;;5094327;28;20079;-79
2021/12/18 08:41:01;;;;;;;0.10;0.10;;;7.40;94.20;;;;;;5076851;28;20466;-81
2021/12/18 08:43:27;;;;;;;0.75;0.20;;;7.40;94.30;;;;;;5093676;28;20051;-83
2021/12/18 08:45:53;;;;;;;0.10;0.10;;;7.40;94.20;;;;;;5114155;28;20048;-80
2021/12/18 08:48:18;;;;;;;0.57;0.20;;;7.40;94.20;;;;;;5115302;28;20150;-81
2021/12/18 08:50:45;;;;;;;0.30;0.10;;;7.40;94.20;;;;;;5093827;28;20039;-81
2021/12/18 08:53:10;;;;;;;0.13;0.10;;;7.30;94.20;;;;;;5112339;28;20104;-81
2021/12/18 08:55:36;;;;;;;0.08;0.08;;;7.30;94.20;;;;;;5080385;28;20496;-81
2021/12/18 08:58:02;;;;;;;0.17;0.10;;;7.30;94.20;;;;;;5080244;28;20042;-81
2021/12/18 09:00:30;;;;;;;0.20;0.13;;;7.30;94.20;;;;;;5097513;28;20093;-81
2021/12/18 09:02:57;;;;;;;0.10;0.10;;;7.30;94.30;;;;;;5096680;28;20461;-81
2021/12/18 09:05:23;;;;;;;0.10;0.10;;;7.30;94.30;;;;;;5097172;28;20043;-81
2021/12/18 09:07:50;;;;;;;0.00;0.00;;;7.30;94.20;;;;;;5114994;28;20074;-82
2021/12/18 09:10:16;;;;;;;0.10;0.10;;;7.30;94.20;;;;;;5096820;28;20040;-82
2021/12/18 09:12:43;;;;;;;0.10;0.10;;;7.40;94.20;;;;;;5096777;28;20039;-82
2021/12/18 09:15:09;;;;;;;0.20;0.08;;;7.40;94.20;;;;;;5079691;28;20032;-82
2021/12/18 09:17:35;;;;;;;0.00;0.00;;;7.40;94.20;;;;;;5063137;28;20396;-82
2021/12/18 09:20:01;;;;;;;0.00;0.00;;;7.50;94.20;;;;;;5079815;28;20499;-81
2021/12/18 09:22:27;;;;;;;0.10;0.10;;;7.50;94.20;;;;;;5080352;28;20502;-81
2021/12/18 09:24:53;;;;;;;0.10;0.10;;;7.50;94.10;;;;;;5081663;28;20043;-81
2021/12/18 09:27:20;;;;;;;0.15;0.10;;;7.50;94.10;;;;;;5114833;28;20047;-81
2021/12/18 09:29:45;;;;;;;0.10;0.10;;;7.50;94.10;;;;;;5064939;28;20035;-81
2021/12/18 09:32:11;;;;;;;0.10;0.10;;;7.60;94.10;;;;;;5079754;28;20040;-81
2021/12/18 09:34:37;;;;;;;0.15;0.10;;;7.40;94.10;;;;;;5096505;28;20040;-82
2021/12/18 09:37:03;;;;;;;0.25;0.00;;;7.40;94.10;;;;;;5080160;28;20089;-81
2021/12/18 09:39:29;;;;;;;0.05;0.05;;;7.50;94.20;;;;;;5096466;28;20134;-82
2021/12/18 09:41:55;;;;;;;0.10;0.10;;;7.50;94.10;;;;;;5079601;28;20074;-82
2021/12/18 09:44:23;;;;;;;0.20;0.20;;;7.40;94.10;;;;;;5098131;28;20047;-81
2021/12/18 09:46:49;;;;;;;0.00;0.00;;;7.50;94.10;;;;;;5114504;28;20040;-81
2021/12/18 09:49:16;;;;;;;0.55;0.25;;;7.50;94.10;;;;;;5096190;28;20047;-81
2021/12/18 09:51:42;;;;;;;0.10;0.10;;;7.50;94.30;;;;;;5096277;28;20500;-82
2021/12/18 09:54:08;;;;;;;0.00;0.00;;;7.50;94.10;;;;;;5079260;28;20118;-82
2021/12/18 09:56:34;;;;;;;0.10;0.10;;;7.50;94.10;;;;;;5096164;28;20429;-81
2021/12/18 09:58:59;;;;;;;0.25;0.10;;;7.40;94.10;;;;;;5116124;28;20392;-81
2021/12/18 10:01:25;;;;;;;0.00;0.00;;;7.30;94.00;;;;;;5081019;28;20092;-81
2021/12/18 10:03:55;;;;;;;0.00;0.00;;;7.50;94.10;;;;;;5095829;28;20484;-82
2021/12/18 10:06:43;;;;;;;0.25;0.10;;;7.50;94.30;;;;;;5093278;28;20043;-82
2021/12/18 10:09:31;;;;;;;0.10;0.10;;;7.40;94.00;;;;;;5096553;28;20050;-82
2021/12/18 10:12:17;;;;;;;0.20;0.10;;;7.50;94.00;;;;;;5067909;28;20036;-82
2021/12/18 10:14:48;;;;;;;0.10;0.10;;;7.60;94.10;;;;;;5096296;28;20370;-82
2021/12/18 10:17:35;;;;;;;0.20;0.00;;;7.50;94.00;;;;;;5064371;28;20051;-82
2021/12/18 10:20:22;;;;;;;0.28;0.17;;;7.50;94.10;;;;;;5113808;28;20039;-82
2021/12/18 10:22:52;;;;;;;0.32;0.17;;;7.50;94.10;;;;;;5088674;28;20039;-81
2021/12/18 10:25:22;;;;;;;0.03;0.03;;;7.50;94.00;;;;;;5107343;28;20138;-80
2021/12/18 10:28:14;;;;;;;0.10;0.10;;;7.50;94.10;;;;;;5127497;28;20040;-80
2021/12/18 10:30:49;;;;;;;0.10;0.10;;;7.50;94.10;;;;;;5100938;28;20040;-82
2021/12/18 10:33:16;;;;;;;0.10;0.10;;;7.50;94.10;;;;;;5098522;28;20039;-82
2021/12/18 10:35:47;;;;;;;0.10;0.10;;;7.60;94.00;;;;;;5097205;28;20126;-82
2021/12/18 10:38:48;;;;;;;0.03;0.03;;;7.60;94.00;;;;;;5077153;28;20139;-81
2021/12/18 10:41:34;;;;;;;0.00;0.00;;;7.70;93.80;;;;;;5080318;28;20532;-82
2021/12/18 10:44:07;;;;;;;0.10;0.10;;;7.70;93.80;;;;;;5094315;28;20134;-82
2021/12/18 10:46:36;;;;;;;0.57;0.20;;;7.50;93.70;;;;;;5079514;28;20043;-83
2021/12/18 10:49:12;;;;;;;0.13;0.13;;;7.60;93.80;;;;;;5078500;28;20080;-82
2021/12/18 10:51:39;;;;;;;0.25;0.20;;;7.60;93.90;;;;;;5062018;28;20048;-82
2021/12/18 10:54:15;;;;;;;0.32;0.30;;;7.50;93.80;;;;;;5113549;28;20088;-82
2021/12/18 10:56:46;;;;;;;0.10;0.10;;;7.50;94.10;;;;;;5063233;28;20043;-82
2021/12/18 10:59:27;;;;;;;0.20;0.15;;;7.50;93.90;;;;;;5080338;28;20058;-82
2021/12/18 11:01:55;;;;;;;0.20;0.10;;;7.50;93.90;;;;;;5095040;28;20032;-82
2021/12/18 11:04:34;;;;;;;0.20;0.20;;;7.50;93.90;;;;;;5115358;28;20118;-86
2021/12/18 11:07:17;;;;;;;0.45;0.13;;;7.50;94.00;;;;;;5117176;28;20054;-80
2021/12/18 11:09:59;;;;;;;0.20;0.20;;;7.50;93.90;;;;;;5094929;28;20071;-82
2021/12/18 11:15:08;;;;;;;0.10;0.10;;;7.50;93.90;;;;;;5113175;28;20059;-80
2021/12/18 11:17:34;;;;;;;0.38;0.20;;;7.50;93.90;;;;;;5059188;28;20489;-80
2021/12/18 11:20:00;;;;;;;0.55;0.30;;;7.50;93.90;;;;;;5096184;28;20121;-82
2021/12/18 11:22:25;;;;;;;0.10;0.10;;;7.50;93.90;;;;;;5077913;28;20130;-79
2021/12/18 11:25:02;;;;;;;0.20;0.10;;;7.50;93.90;;;;;;5116231;28;20043;-80
2021/12/18 11:27:31;;;;;;;0.35;0.20;;;7.50;94.00;;;;;;5115623;28;20488;-80
2021/12/18 11:30:13;;;;;;;0.25;0.20;;;7.50;94.00;;;;;;5097077;28;20482;-80
2021/12/18 11:32:43;;;;;;;0.10;0.10;;;7.60;94.00;;;;;;5096416;28;20435;-80
2021/12/18 11:35:12;;;;;;;0.20;0.20;;;7.60;93.90;;;;;;5116526;28;20039;-80
2021/12/18 11:37:42;;;;;;;0.10;0.10;;;7.60;93.90;;;;;;5116901;28;20048;-80
2021/12/18 11:40:11;;;;;;;0.17;0.15;;;7.60;93.90;;;;;;5097905;28;20097;-80
2021/12/18 11:42:37;;;;;;;0.20;0.10;;;7.70;93.90;;;;;;5097786;28;20135;-80
2021/12/18 11:45:06;;;;;;;0.10;0.10;;;7.70;93.80;;;;;;5080199;28;20551;-81
2021/12/18 11:47:37;;;;;;;0.10;0.10;;;7.70;93.80;;;;;;5097222;28;20051;-81
2021/12/18 11:50:20;;;;;;;0.10;0.05;;;7.80;93.80;;;;;;5113154;28;20043;-81
2021/12/18 11:53:02;;;;;;;0.47;0.40;;;7.60;93.80;;;;;;5100371;28;20088;-80
2021/12/18 11:55:33;;;;;;;0.10;0.10;;;7.60;93.80;;;;;;5096506;28;20111;-81
2021/12/18 11:58:02;;;;;;;0.10;0.10;;;7.50;93.90;;;;;;5115728;28;20052;-80
2021/12/18 12:00:43;;;;;;;0.05;0.05;;;7.60;93.90;;;;;;5079972;28;20376;-82
2021/12/18 12:03:11;;;;;;;0.20;0.10;;;7.70;93.90;;;;;;5114652;28;20044;-80
2021/12/18 12:05:41;;;;;;;0.30;0.20;;;7.70;93.80;;;;;;5088026;28;20047;-80
2021/12/18 12:08:22;;;;;;;0.20;0.20;;;7.70;93.80;;;;;;5069367;28;20035;-81
2021/12/18 12:11:19;;;;;;;0.10;0.03;;;7.70;93.70;;;;;;5097353;28;20123;-80
2021/12/18 12:14:06;;;;;;;0.35;0.20;;;7.80;93.80;;;;;;5079212;28;20077;-81
2021/12/18 12:17:12;;;;;;;0.20;0.20;;;7.80;93.70;;;;;;5096879;28;20046;-81
2021/12/18 12:19:42;;;;;;;0.10;0.10;;;7.70;93.70;;;;;;5071912;28;20449;-80
2021/12/18 12:22:12;;;;;;;0.10;0.10;;;7.80;93.70;;;;;;5079413;28;20127;-81
2021/12/18 12:24:55;;;;;;;0.10;0.10;;;7.80;93.70;;;;;;5080425;28;20043;-81
2021/12/18 12:27:35;;;;;;;0.25;0.20;;;7.90;93.70;;;;;;5096427;28;20044;-81
2021/12/18 12:30:08;;;;;;;0.10;0.10;;;7.90;93.60;;;;;;5098588;28;20039;-81
2021/12/18 12:32:35;;;;;;;0.15;0.13;;;7.80;93.60;;;;;;5100873;28;20028;-81
2021/12/18 12:35:13;;;;;;;0.20;0.20;;;7.80;93.60;;;;;;5082729;28;20452;-77
2021/12/18 12:37:43;;;;;;;0.20;0.20;;;7.80;93.60;;;;;;5100548;28;20039;-79
2021/12/18 12:40:13;;;;;;;0.38;0.20;;;7.80;93.90;;;;;;5085651;28;20043;-79
2021/12/18 12:42:42;;;;;;;0.10;0.10;;;7.80;93.70;;;;;;5083558;28;20047;-79
2021/12/18 12:45:14;;;;;;;0.77;0.43;;;7.90;93.70;;;;;;5066607;28;20046;-79
2021/12/18 12:47:40;;;;;;;0.10;0.10;;;7.90;93.60;;;;;;5080994;28;20082;-79
2021/12/18 12:50:27;;;;;;;0.10;0.10;;;7.90;93.60;;;;;;5080528;28;20032;-79
2021/12/18 12:53:00;;;;;;;0.10;0.10;;;8.00;93.60;;;;;;5115542;28;20040;-80
2021/12/18 12:55:36;;;;;;;0.30;0.30;;;8.00;93.50;;;;;;5080357;28;20122;-79
2021/12/18 12:58:03;;;;;;;0.10;0.10;;;8.00;93.50;;;;;;5116905;28;20126;-79
2021/12/18 13:00:35;;;;;;;0.10;0.10;;;8.00;93.50;;;;;;5080364;28;20050;-79
2021/12/18 13:03:07;;;;;;;0.13;0.10;;;7.90;93.50;;;;;;5080277;28;20512;-79
2021/12/18 13:05:46;;;;;;;0.10;0.10;;;8.00;93.50;;;;;;5080255;28;20051;-79
2021/12/18 13:08:12;;;;;;;0.10;0.10;;;8.00;93.50;;;;;;5096731;28;20523;-79
2021/12/18 13:10:39;;;;;;;0.20;0.20;;;8.10;93.50;;;;;;5099114;28;20038;-79
2021/12/18 13:13:07;;;;;;;0.20;0.17;;;8.10;93.50;;;;;;5099178;28;20158;-79
2021/12/18 13:15:47;;;;;;;0.15;0.10;;;8.10;93.40;;;;;;5065202;28;20031;-80
2021/12/18 13:18:14;;;;;;;0.08;0.08;;;8.20;93.50;;;;;;5090972;28;20485;-82
2021/12/18 13:20:55;;;;;;;0.45;0.20;;;8.10;93.40;;;;;;5089286;28;20044;-82
2021/12/18 13:23:35;;;;;;;0.30;0.10;;;8.10;93.40;;;;;;5103282;28;20734;-82
2021/12/18 13:26:05;;;;;;;0.17;0.17;;;8.10;93.50;;;;;;5095262;28;20034;-83
2021/12/18 13:28:31;;;;;;;0.20;0.20;;;8.10;93.50;;;;;;5083772;28;20055;-81
2021/12/18 13:30:57;;;;;;;0.20;0.20;;;8.10;93.50;;;;;;5066102;28;20039;-82
2021/12/18 13:33:25;;;;;;;0.10;0.10;;;8.10;93.50;;;;;;5072015;28;20048;-82
2021/12/18 13:36:03;;;;;;;0.28;0.20;;;8.10;93.50;;;;;;5089125;28;20051;-82
2021/12/18 13:38:39;;;;;;;0.10;0.10;;;8.10;93.40;;;;;;5054832;28;20106;-83
2021/12/18 13:41:14;;;;;;;0.13;0.10;;;8.10;93.50;;;;;;5052116;28;20512;-79
2021/12/18 13:43:40;;;;;;;0.10;0.10;;;8.20;93.50;;;;;;5033264;28;20041;-80
2021/12/18 13:46:09;;;;;;;0.20;0.20;;;8.10;93.50;;;;;;5016270;28;20142;-80
2021/12/18 13:48:38;;;;;;;0.43;0.20;;;8.20;93.50;;;;;;4998942;28;20046;-80